• Join FlightAware (Why Join?)
  • Login
  • US Flag 
04:43PM EDT


 

Airport Tracker/Info


-or-


 

Live Flight TrackerFlight Track Log ✈ QFA1043 ✈ 29-Jun-2013 ✈ YBRM / BME - YSSY / SYD

Flight Track Log - Related Links

Times and Time Zones

All times are in EDT time to prevent confusion due to time zone crossing. See the QFA1043 flight status page for this flight to view local times or setup timezone preferences in your user account.

Time Position Orientation Groundspeed Altitude Reporting Facility
EDT Latitude Longitude Course Direction KTS MPH feet Rate Location/Type
02:38AM -17.9496 122.2277 133° Southeast 34,000  Level Aus ATC (Calculated)
02:39AM -18.0108 122.2962 133° Southeast 34,000  Level Aus ATC (Calculated)
02:41AM -18.1883 122.4955 133° Southeast  Level FlightAware Approximate
02:41AM -18.2292 122.5414 133° Southeast 34,000  Level Aus ATC (Calculated)
02:41AM -18.2292 122.5414 133° Southeast 34,000  Level Aus ATC (Calculated)
02:42AM -18.2728 122.5905 133° Southeast 34,000  Level Aus ATC (Calculated)
02:44AM -18.4492 122.7894 133° Southeast  Level FlightAware Approximate
02:44AM -18.3954 122.7287 133° Southeast 34,000  Level Aus ATC (Calculated)
02:46AM -18.5815 122.9390 133° Southeast  Level FlightAware Approximate
02:46AM -18.5281 122.8786 133° Southeast 34,000  Level Aus ATC (Calculated)
02:47AM -18.6275 122.9912 133° Southeast 34,000  Level Aus ATC (Calculated)
02:49AM -18.8133 123.2020 133° Southeast  Level FlightAware Approximate
02:49AM -18.7765 123.1603 133° Southeast 34,000  Level Aus ATC (Calculated)
02:50AM -18.8510 123.2449 133° Southeast 34,000  Level Aus ATC (Calculated)
02:51AM -18.9881 123.4015 133° Southeast 35,000  Climbing Aus ATC (Calculated)
02:53AM -18.8518 123.2453 313° West  Level FlightAware Approximate
02:53AM -19.1761 123.6175 133° Southeast 35,000  Level Aus ATC (Calculated)
02:54AM -19.2387 123.6896 133° Southeast 35,000  Level Aus ATC (Calculated)
02:54AM -19.3012 123.7618 133° Southeast 35,000  Level Aus ATC (Calculated)
02:56AM -19.4010 123.9044 133° Southeast  Level Estimated
02:57AM -19.4988 124.0158 133° Southeast  Level FlightAware Approximate
02:57AM -19.6136 124.1234 133° Southeast 35,000  Level Aus ATC (Calculated)
02:58AM -19.5966 124.1275 133° Southeast  Level FlightAware Approximate
02:59AM -19.7352 124.2648 132° Southeast  Level FlightAware Approximate
03:00AM -19.8324 124.3781 132° Southeast  Level FlightAware Approximate
03:00AM -19.9253 124.4865 132° Southeast 35,000  Level Aus ATC (Calculated)
03:01AM -19.9295 124.4915 132° Southeast  Level FlightAware Approximate
03:02AM -20.0466 124.6284 132° Southeast  Level FlightAware Approximate
03:03AM -20.1435 124.7421 132° Southeast  Level FlightAware Approximate
03:03AM -20.1740 124.7779 132° Southeast 35,000  Level Aus ATC (Calculated)
03:05AM -20.3048 124.9317 132° Southeast  Level FlightAware Approximate
03:05AM -20.3603 124.9971 132° Southeast 35,000  Level Aus ATC (Calculated)
03:05AM -20.4223 125.0703 132° Southeast 35,000  Level Aus ATC (Calculated)
03:07AM -20.5448 125.2150 132° Southeast  Level FlightAware Approximate
03:08AM -20.6414 125.3295 132° Southeast  Level FlightAware Approximate
03:08AM -20.6082 125.2901 132° Southeast 35,000  Level Aus ATC (Calculated)
03:10AM -20.7851 125.5003 132° Southeast  Level FlightAware Approximate
03:10AM -20.9174 125.6578 132° Southeast 35,000  Level Aus ATC (Calculated)
03:11AM -20.8815 125.6151 132° Southeast  Level FlightAware Approximate
03:11AM -20.9901 125.7441 132° Southeast 35,000  Level Aus ATC (Calculated)
03:12AM -20.9051 125.8529 86° East  Level FlightAware Approximate
03:13AM -20.8757 125.6085 312° West  Level FlightAware Approximate
03:14AM -20.9724 125.7231 132° Southeast  Level FlightAware Approximate
03:15AM -20.8757 125.6085 312° West  Level FlightAware Approximate
03:16AM -20.9724 125.7231 132° Southeast  Level FlightAware Approximate
03:16AM -21.4614 126.3074 132° Southeast 35,000  Level Aus ATC (Calculated)
03:17AM -20.8757 125.6085 312° West  Level FlightAware Approximate
03:18AM -21.5606 126.4598 132° Southeast  Level Estimated
03:19AM -21.6576 126.5748 132° Southeast  Level FlightAware Approximate
03:19AM -21.7144 126.6122 132° Southeast 35,000  Level Aus ATC (Calculated)
03:20AM -21.7866 126.6994 132° Southeast 35,000  Level Aus ATC (Calculated)
03:21AM -21.9669 126.9180 132° Southeast 35,000  Level Aus ATC (Calculated)
03:22AM -21.9719 126.9241 132° Southeast  Level FlightAware Approximate
03:23AM -22.0817 127.0577 132° Southeast  Level FlightAware Approximate
03:24AM -22.1773 127.1743 132° Southeast  Level FlightAware Approximate
03:25AM -22.2728 127.2911 131° Southeast  Level FlightAware Approximate
03:26AM -22.3683 127.4080 131° Southeast  Level FlightAware Approximate
03:26AM -22.4341 127.4888 131° Southeast 35,000  Level Aus ATC (Calculated)
03:28AM -22.5501 127.6314 131° Southeast  Level FlightAware Approximate
03:29AM -22.6453 127.7488 131° Southeast  Level FlightAware Approximate
03:30AM -22.7404 127.8664 131° Southeast  Level FlightAware Approximate
03:31AM -22.8354 127.9841 131° Southeast  Level FlightAware Approximate
03:31AM -22.9351 128.1078 131° Southeast 35,000  Level Aus ATC (Calculated)
03:32AM -22.9303 128.1020 131° Southeast  Level FlightAware Approximate
03:32AM -23.0064 128.1967 131° Southeast 35,000  Level Aus ATC (Calculated)
03:33AM -23.0442 128.2437 131° Southeast  Level FlightAware Approximate
03:34AM -23.1249 128.3444 131° Southeast  Level FlightAware Approximate
03:34AM -23.2202 128.4636 131° Southeast 35,000  Level Aus ATC (Calculated)
03:36AM -23.1397 128.3029 299° West  Level FlightAware Approximate
03:36AM -23.4049 128.6958 131° Southeast 35,000  Level Aus ATC (Calculated)
03:37AM -23.2087 128.4406 119° Southeast  Level FlightAware Approximate
03:38AM -23.3089 128.5750 311° West  Level FlightAware Approximate
03:38AM -23.5278 128.8510 131° Southeast 35,000  Level Aus ATC (Calculated)
03:39AM -23.5892 128.9287 131° Southeast 35,000  Level Aus ATC (Calculated)
03:39AM -23.7119 129.0843 131° Southeast 35,000  Level Aus ATC (Calculated)
03:41AM -23.5927 128.9332 311° West  Level FlightAware Approximate
03:42AM -23.4985 128.8140 311° West  Level FlightAware Approximate
03:43AM -23.4042 128.6950 311° West  Level FlightAware Approximate
03:44AM -23.3099 128.5762 311° West  Level FlightAware Approximate
03:44AM -24.2011 129.7097 130° Southeast 35,000  Level Aus ATC (Calculated)
03:45AM -23.2401 128.4886 131° Southeast  Level FlightAware Approximate
03:46AM -24.3195 129.8623 130° Southeast  Level FlightAware Approximate
03:47AM -24.4129 129.9830 130° Southeast  Level FlightAware Approximate
03:48AM -24.5062 130.1039 130° Southeast  Level FlightAware Approximate
03:48AM -24.6240 130.2560 130° Southeast 562 647 35,000  Level FlightAware
03:49AM -24.5994 130.2249 130° Southeast  Level FlightAware Approximate
03:49AM -24.6880 130.3390 130° Southeast 563 648 35,000  Level FlightAware
03:49AM -24.6876 130.3398 130° Southeast 35,000  Level Aus ATC (Calculated)
03:50AM -24.6876 130.3398 130° Southeast 35,000  Level Aus ATC (Calculated)
03:50AM -24.7830 130.4630 130° Southeast 564 649 35,000  Level FlightAware
03:51AM -24.8510 130.5670 130° Southeast 574 661 35,000  Level FlightAware
03:51AM -24.8089 130.4981 117° Southeast 35,000  Level Aus ATC (Calculated)
03:51AM -24.8980 130.6890 130° Southeast 577 664 35,000  Level FlightAware
03:52AM -24.9390 130.8050 111° Southeast 578 665 35,000  Level FlightAware
03:53AM -24.9730 130.9020 111° Southeast 579 666 35,000  Level FlightAware
03:53AM -25.0170 131.0190 113° Southeast 577 664 35,000  Level FlightAware
03:54AM -25.1112 130.8952 84° East 35,000  Level Aus ATC (Calculated)
03:54AM -25.0870 131.1660 113° Southeast 575 662 35,000  Level FlightAware
03:55AM -25.1510 131.2750 123° Southeast 572 658 35,000  Level FlightAware
03:56AM -25.2476 131.1119 81° East 37,000  Climbing Aus ATC (Calculated)
03:56AM -25.2110 131.3740 124° Southeast 573 659 35,000 -2,820 Descending FlightAware
03:56AM -25.2700 131.4710 124° Southeast 574 661 35,000  Level FlightAware
03:57AM -25.3360 131.5820 123° Southeast 573 659 35,000  Level FlightAware
03:58AM -25.3990 131.6870 124° Southeast 574 661 35,000  Level FlightAware
03:58AM -25.4590 131.7880 123° Southeast 574 661 35,000  Level FlightAware
03:59AM -25.5230 131.8950 124° Southeast 575 662 35,000  Level FlightAware
04:00AM -25.5770 131.9850 124° Southeast 575 662 35,000  Level FlightAware
04:00AM -25.6642 131.8691 84° East 37,000  Climbing Aus ATC (Calculated)
04:01AM -25.6440 132.0990 124° Southeast 575 662 35,000 -2,520 Descending FlightAware
04:01AM -25.7040 132.2000 123° Southeast 575 662 35,000  Level FlightAware
04:02AM -25.7690 132.3090 124° Southeast 576 663 35,000  Level FlightAware
04:03AM -25.8280 132.4100 123° Southeast 577 664 35,000  Level FlightAware
04:03AM -25.8820 132.5020 123° Southeast 578 665 35,000  Level FlightAware
04:04AM -25.9510 132.6180 124° Southeast 578 665 35,000  Level FlightAware
04:05AM -26.0060 132.7120 123° Southeast 577 664 35,000  Level FlightAware
04:05AM -26.0670 132.8180 123° Southeast 578 665 35,000  Level FlightAware
04:05AM -26.0767 132.6315 102° East 37,000  Climbing Aus ATC (Calculated)
04:06AM -26.0767 132.6315 102° East 37,000 -2,760 Level Aus ATC (Calculated)
04:06AM -26.1370 132.9370 123° Southeast 578 665 35,000 -1,620 Descending FlightAware
04:07AM -26.1910 133.0300 123° Southeast 578 665 35,000  Level FlightAware
04:08AM -26.2580 133.1460 123° Southeast 578 665 35,000  Level FlightAware
04:08AM -26.3170 133.2470 123° Southeast 578 665 35,000  Level FlightAware
04:09AM -26.3670 133.3340 123° Southeast 579 666 35,000  Level FlightAware
04:10AM -26.4112 133.2592 98° East 37,000  Climbing Aus ATC (Calculated)
04:10AM -26.4370 133.4560 123° Southeast 580 667 35,000 -2,460 Descending FlightAware
04:10AM -26.5010 133.5680 123° Southeast 581 669 35,000  Level FlightAware
04:10AM -26.4852 133.3992 107° East 37,000  Climbing Aus ATC (Calculated)
04:11AM -26.5570 133.6650 123° Southeast 582 670 35,000 -1,680 Descending FlightAware
04:12AM -26.6140 133.7650 123° Southeast 583 671 35,000  Level FlightAware
04:13AM -26.6830 133.8860 123° Southeast 583 671 35,000  Level FlightAware
04:13AM -26.7420 133.9890 123° Southeast 584 672 35,000  Level FlightAware
04:14AM -26.8040 134.0980 123° Southeast 586 674 35,000  Level FlightAware
04:15AM -26.8895 134.1723 116° Southeast 37,000  Climbing Aus ATC (Calculated)
04:16AM -27.0280 134.4950 120° Southeast 588 677 35,000 -1,140 Descending FlightAware
04:17AM -26.9679 134.3237 120° Southeast  Level FlightAware Approximate
04:17AM -27.0860 134.5990 122° Southeast 588 677 35,000  Level FlightAware
04:18AM -27.1560 134.7220 123° Southeast 587 676 35,000  Level FlightAware
04:19AM -27.2150 134.8310 121° Southeast 587 676 35,000  Level FlightAware
04:19AM -27.1809 134.7380 118° Southeast 37,000  Climbing Aus ATC (Calculated)
04:19AM -27.1809 134.7380 118° Southeast 37,000 -2,400 Level Aus ATC (Calculated)
04:20AM -27.2890 134.9690 121° Southeast 587 676 35,000 -1,140 Descending FlightAware
04:20AM -27.2896 134.9509 118° Southeast 37,000  Climbing Aus ATC (Calculated)
04:21AM -27.3610 135.1050 121° Southeast 587 676 35,000 -2,220 Descending FlightAware
04:21AM -27.4040 135.1850 121° Southeast 587 676 35,000  Level FlightAware
04:22AM -27.4610 135.2920 121° Southeast 587 676 35,000  Level FlightAware
04:22AM -27.4340 135.2354 120° Southeast 37,000  Climbing Aus ATC (Calculated)
04:23AM -27.4700 135.3066 120° Southeast 37,000 -3,360 Level Aus ATC (Calculated)
04:23AM -27.5060 135.3770 121° Southeast 587 676 35,000 -2,580 Descending FlightAware
04:23AM -27.5060 135.3779 122° Southeast 37,000  Climbing Aus ATC (Calculated)
04:23AM -27.5490 135.4570 121° Southeast 587 676 35,000 -1,740 Descending FlightAware
04:24AM -27.6040 135.5600 121° Southeast 587 676 35,000  Level FlightAware
04:25AM -27.6890 135.7210 121° Southeast 587 676 35,000  Level FlightAware
04:26AM -27.7330 135.8040 121° Southeast 587 676 35,000  Level FlightAware
04:27AM -27.7910 135.9130 121° Southeast 587 676 35,000  Level FlightAware
04:27AM -27.8340 135.9940 121° Southeast 587 676 35,000  Level FlightAware
04:28AM -27.8402 136.0210 126° Southeast 37,000  Climbing Aus ATC (Calculated)
04:28AM -27.8890 136.0970 121° Southeast 587 676 35,000 -1,620 Descending FlightAware
04:29AM -27.9330 136.1800 121° Southeast 587 676 35,000  Level FlightAware
04:29AM -28.0096 136.3492 280° West 37,000  Climbing Aus ATC (Calculated)
04:30AM -28.0096 136.3492 280° West 37,000 -7,500 Level Aus ATC (Calculated)
04:30AM -28.0040 136.3140 121° Southeast 587 676 35,000 -2,700 Descending FlightAware
04:30AM -28.0480 136.3970 121° Southeast 587 676 35,000  Level FlightAware
04:31AM -28.0940 136.5136 143° Southeast 37,000  Climbing Aus ATC (Calculated)
04:31AM -28.1230 136.5380 121° Southeast 587 676 35,000 -1,560 Descending FlightAware
04:32AM -28.1782 136.6783 283° West 37,000  Climbing Aus ATC (Calculated)
04:32AM -28.1660 136.6190 121° Southeast 587 676 35,000 -1,800 Descending FlightAware
04:33AM -28.2202 136.7608 265° West 37,000  Climbing Aus ATC (Calculated)
04:33AM -28.2230 136.7270 121° Southeast 587 676 35,000 -180 Descending FlightAware
04:34AM -28.3138 136.9503 119° Southeast 37,000  Climbing Aus ATC (Calculated)
04:35AM -28.3605 137.0452 119° Southeast 37,000 -180 Level Aus ATC (Calculated)
04:37AM -28.3466 137.0169 119° Southeast  Level FlightAware Approximate
04:38AM -28.4179 137.1621 119° Southeast  Level FlightAware Approximate
04:39AM -28.4890 137.3074 119° Southeast  Level FlightAware Approximate
04:39AM -28.7778 137.9028 119° Southeast 37,000  Level Aus ATC (Calculated)
04:40AM -28.5600 137.4530 119° Southeast  Level FlightAware Approximate
04:41AM -28.8505 138.0541 119° Southeast  Level FlightAware Approximate
04:42AM -28.9206 138.2007 119° Southeast  Level FlightAware Approximate
04:43AM -28.9907 138.3474 119° Southeast  Level FlightAware Approximate
04:44AM -29.0605 138.4944 119° Southeast  Level FlightAware Approximate
04:44AM -29.1441 138.6709 118° Southeast 37,000  Level Aus ATC (Calculated)
04:45AM -29.1302 138.6416 118° Southeast  Level FlightAware Approximate
04:46AM -29.2194 138.8307 118° Southeast  Level FlightAware Approximate
04:47AM -29.2922 138.9856 118° Southeast  Level FlightAware Approximate
04:48AM -29.3648 139.1407 118° Southeast  Level FlightAware Approximate
04:49AM -29.4371 139.2961 118° Southeast  Level FlightAware Approximate
04:49AM -29.6600 139.7790 118° Southeast 579 666 35,000  Level FlightAware
04:49AM -29.5060 139.4443 118° Southeast 37,000  Climbing Aus ATC (Calculated)
04:49AM -29.5060 139.4443 118° Southeast 37,000 -4,020 Level Aus ATC (Calculated)
04:50AM -29.7270 139.9240 118° Southeast 577 664 35,000 -1,740 Descending FlightAware
04:50AM -29.7750 140.0290 118° Southeast 575 662 35,000  Level FlightAware
04:51AM -29.8300 140.1500 118° Southeast 573 659 35,000  Level FlightAware
04:52AM -29.8730 140.2480 117° Southeast 573 659 35,000  Level FlightAware
04:53AM -29.9390 140.3900 118° Southeast 571 657 35,000  Level FlightAware
04:53AM -29.9830 140.4880 117° Southeast 570 656 35,000  Level FlightAware
04:54AM -29.8463 140.1860 118° Southeast 37,000  Climbing Aus ATC (Calculated)
04:54AM -30.0530 140.6450 117° Southeast 570 656 35,000 -2,700 Descending FlightAware
04:55AM -30.1000 140.7500 117° Southeast 569 655 35,000  Level FlightAware
04:56AM -30.1380 140.8350 117° Southeast 569 655 35,000  Level FlightAware
04:56AM -30.0065 140.5400 117° Southeast 37,000  Climbing Aus ATC (Calculated)
04:56AM -30.1870 140.9460 117° Southeast 569 655 35,000 -2,880 Descending FlightAware
04:57AM -30.2230 141.0290 117° Southeast 569 655 35,000  Level FlightAware
04:58AM -30.2730 141.1420 117° Southeast 569 655 35,000  Level FlightAware
04:58AM -30.3100 141.2250 117° Southeast 569 655 35,000  Level FlightAware
04:58AM -30.1340 140.8240 117° Southeast 37,000  Climbing Aus ATC (Calculated)
04:59AM -30.3600 141.3400 117° Southeast 569 655 35,000 -1,440 Descending FlightAware
05:00AM -30.3980 141.4260 117° Southeast 569 655 35,000  Level FlightAware
05:01AM -30.4470 141.5370 117° Southeast 569 655 35,000  Level FlightAware
05:01AM -30.4820 141.6180 117° Southeast 569 655 35,000  Level FlightAware
05:02AM -30.5310 141.7290 117° Southeast 569 655 35,000  Level FlightAware
05:02AM -30.3964 141.4154 117° Southeast 37,000  Climbing Aus ATC (Calculated)
05:03AM -30.5700 141.8170 117° Southeast 569 655 35,000 -1,680 Descending FlightAware
05:03AM -30.4371 141.5080 117° Southeast 37,000  Climbing Aus ATC (Calculated)
05:03AM -30.6060 141.9000 117° Southeast 569 655 35,000 -1,560 Descending FlightAware
05:03AM -30.4777 141.6007 117° Southeast 37,000  Climbing Aus ATC (Calculated)
05:04AM -30.6530 142.0070 117° Southeast 569 655 35,000 -120 Descending FlightAware
05:04AM -30.5183 141.6934 117° Southeast 37,000  Climbing Aus ATC (Calculated)
05:06AM -30.6799 142.0652 117° Southeast 37,000 -120 Level Aus ATC (Calculated)
05:08AM -30.7912 142.3232 117° Southeast  Level FlightAware Approximate
05:08AM -30.8005 142.3448 117° Southeast 37,000  Level Aus ATC (Calculated)
05:10AM -30.9203 142.6248 117° Southeast  Level FlightAware Approximate
05:10AM -30.9602 142.7187 116° Southeast 37,000  Level Aus ATC (Calculated)
05:11AM -31.0328 142.8899 116° Southeast 37,000 -180 Level Aus ATC (Calculated)
05:13AM -30.9375 142.6652 296° West  Level FlightAware Approximate
05:13AM -31.1310 143.1226 116° Southeast 37,000  Level Aus ATC (Calculated)
05:15AM -31.1058 143.0628 116° Southeast  Level FlightAware Approximate
05:16AM -31.1735 143.2238 116° Southeast  Level FlightAware Approximate
05:17AM -31.2409 143.3850 116° Southeast  Level FlightAware Approximate
05:18AM -31.3081 143.5464 116° Southeast  Level FlightAware Approximate
05:18AM -31.4551 143.9019 116° Southeast 37,000  Level Aus ATC (Calculated)
05:20AM -31.5770 144.1994 116° Southeast  Level FlightAware Approximate
05:21AM -31.6432 144.3620 116° Southeast  Level FlightAware Approximate
05:22AM -31.7093 144.5248 116° Southeast  Level FlightAware Approximate
05:22AM -31.7110 144.5292 115° Southeast 37,000  Level Aus ATC (Calculated)
05:23AM -31.9990 145.2470 116° Southeast 543 625 35,000 -1,020 Descending FlightAware
05:23AM -32.0280 145.3453 116° Southeast 546 628 35,300  Climbing Aus ATC (RADAR)
05:24AM -32.0620 145.4080 116° Southeast 35,000 -300 Descending FlightAware
05:25AM -32.1050 145.5170 116° Southeast 543 625 35,000 360 Level FlightAware
05:25AM -32.1098 145.5422 116° Southeast 536 617 35,300 480 Climbing Aus ATC (RADAR)
05:25AM -32.1427 145.6199 116° Southeast 535 616 35,300 -540 Level Aus ATC (RADAR)
05:25AM -32.1480 145.6260 116° Southeast 542 624 35,000 -360 Descending FlightAware
05:26AM -32.1950 145.7480 115° Southeast 540 621 35,000  Level FlightAware
05:27AM -32.2380 145.8570 115° Southeast 541 623 35,000 180 Level FlightAware
05:27AM -32.2856 145.9784 115° Southeast 532 612 35,300  Climbing Aus ATC (RADAR)
05:27AM -32.2840 145.9760 115° Southeast 540 621 35,000  Descending FlightAware
05:28AM -32.3204 146.0739 115° Southeast 537 618 35,300  Climbing Aus ATC (RADAR)
05:28AM -32.3260 146.0850 115° Southeast 533 613 35,000  Descending FlightAware
05:29AM -32.3573 146.1656 115° Southeast 528 608 35,300  Climbing Aus ATC (RADAR)
05:29AM -32.3720 146.2040 115° Southeast 527 606 35,000 -360 Descending FlightAware
05:29AM -32.4070 146.2960 115° Southeast 524 603 35,000 360 Level FlightAware
05:30AM -32.4206 146.3387 115° Southeast 523 602 35,300 360 Climbing Aus ATC (RADAR)
05:30AM -32.4579 146.4275 115° Southeast 517 595 35,300  Level Aus ATC (RADAR)
05:31AM -32.4924 146.5190 114° Southeast 516 594 35,300  Level Aus ATC (RADAR)
05:31AM -32.5227 146.5965 115° Southeast 515 593 35,300  Level Aus ATC (RADAR)
05:32AM -32.5572 146.6876 114° Southeast 514 592 35,300  Level Aus ATC (RADAR)
05:32AM -32.5921 146.7783 115° Southeast 515 593 35,300  Level Aus ATC (RADAR)
05:33AM -32.6313 146.8828 114° Southeast 516 594 35,300  Level Aus ATC (RADAR)
05:34AM -32.6652 146.9743 114° Southeast 516 594 35,300  Level Aus ATC (RADAR)
05:34AM -32.7043 147.0796 114° Southeast 516 594 35,300  Level Aus ATC (RADAR)
05:35AM -32.7388 147.1718 114° Southeast 519 597 35,300  Level Aus ATC (RADAR)
05:36AM -32.7735 147.2635 114° Southeast 517 595 35,300  Level Aus ATC (RADAR)
05:36AM -32.8130 147.3689 114° Southeast 518 596 35,300  Level Aus ATC (RADAR)
05:37AM -32.8473 147.4611 114° Southeast 517 595 35,300  Level Aus ATC (RADAR)
05:37AM -32.8813 147.5538 114° Southeast 518 596 35,300  Level Aus ATC (RADAR)
05:38AM -32.9106 147.6331 114° Southeast 518 596 35,300  Level Aus ATC (RADAR)
05:38AM -32.9444 147.7258 113° Southeast 518 596 35,300  Level Aus ATC (RADAR)
05:39AM -32.9788 147.8185 114° Southeast 518 596 35,300  Level Aus ATC (RADAR)
05:40AM -33.0155 147.8924 121° Southeast 516 594 35,300  Level Aus ATC (RADAR)
05:40AM -33.0590 147.9772 121° Southeast 510 587 35,300  Level Aus ATC (RADAR)
05:41AM -33.0967 148.0501 122° Southeast 511 588 35,300  Level Aus ATC (RADAR)
05:41AM -33.1466 148.1468 122° Southeast 508 585 35,300  Level Aus ATC (RADAR)
05:42AM -33.1901 148.2311 122° Southeast 506 582 35,300  Level Aus ATC (RADAR)
05:43AM -33.2391 148.3271 121° Southeast 502 578 35,300 -300 Level Aus ATC (RADAR)
05:43AM -33.2630 148.3750 121° Southeast 510 587 35,000  Descending FlightAware
05:44AM -33.3123 148.4716 121° Southeast 502 578 35,300  Climbing Aus ATC (RADAR)
05:44AM -33.3100 148.4680 121° Southeast 505 581 35,000  Descending FlightAware
05:44AM -33.3613 148.5675 121° Southeast 501 577 35,300  Climbing Aus ATC (RADAR)
05:44AM -33.3660 148.5760 121° Southeast 506 582 35,000 -420 Descending FlightAware
05:45AM -33.4150 148.6730 121° Southeast 509 586 35,000 180 Level FlightAware
05:46AM -33.4823 148.8083 121° Southeast 499 574 35,300  Climbing Aus ATC (RADAR)
05:46AM -33.4810 148.8060 121° Southeast 504 580 35,000 -420 Descending FlightAware
05:47AM -33.5220 148.9220 113° Southeast 512 589 35,000  Level FlightAware
05:47AM -33.5550 149.0290 110° East 510 587 35,000  Level FlightAware
05:48AM -33.5860 149.1270 110° East 509 586 35,000 360 Level FlightAware
05:48AM -33.5931 149.1502 110° East 499 574 35,300 360 Climbing Aus ATC (RADAR)
05:49AM -33.6261 149.2554 110° East 498 573 35,300 -480 Level Aus ATC (RADAR)
05:49AM -33.6250 149.2510 110° East 508 585 35,000 -360 Descending FlightAware
05:50AM -33.6690 149.3940 110° East 509 586 35,000 -180 Level FlightAware
05:50AM -33.7035 149.5060 110° East 496 571 34,800 -1,500 Descending Aus ATC (RADAR)
05:51AM -33.7140 149.5410 110° East 511 588 33,600 -2,880 Descending FlightAware
05:51AM -33.7565 149.6775 110° East 490 564 31,700 -2,400 Descending Aus ATC (RADAR)
05:51AM -33.7590 149.6860 110° East 494 568 31,400 -1,740 Descending FlightAware
05:52AM -33.7839 149.7660 110° East 474 545 30,700 -2,160 Descending Aus ATC (RADAR)
05:52AM -33.8050 149.8350 110° East 466 536 29,300 -2,220 Descending FlightAware
05:52AM -33.8063 149.8394 110° East 457 526 29,600 -2,340 Climbing Aus ATC (RADAR)
05:53AM -33.8313 149.9226 110° East 441 507 27,900 -3,240 Descending Aus ATC (RADAR)
05:53AM -33.8350 149.9350 110° East 450 518 27,400 -3,480 Descending FlightAware
05:54AM -33.8890 150.1120 110° East 441 507 23,200 -3,180 Descending FlightAware
05:55AM -33.9125 150.1913 110° East 425 489 21,700 -3,000 Descending Aus ATC (RADAR)
05:55AM -33.9330 150.2610 110° East 431 496 20,000 -2,640 Descending FlightAware
05:56AM -33.9562 150.3369 110° East 407 468 18,900 -2,280 Descending Aus ATC (RADAR)
05:57AM -33.9791 150.4119 110° East 395 455 17,400 -2,520 Descending Aus ATC (RADAR)
05:57AM -34.0039 150.4957 110° East 382 440 15,800 -2,460 Descending Aus ATC (RADAR)
05:58AM -34.0248 150.5667 110° East 371 427 14,400 -2,340 Descending Aus ATC (RADAR)
05:58AM -34.0457 150.6366 110° East 365 420 13,100 -2,160 Descending Aus ATC (RADAR)
05:59AM -34.0688 150.7144 110° East 356 410 11,700 -2,940 Descending Aus ATC (RADAR)
06:00AM -34.0906 150.7896 109° East 343 395 9,200 -3,720 Descending Aus ATC (RADAR)
06:00AM -34.0930 150.7990 109° East 364 419 8,800 -1,140 Descending FlightAware
06:00AM -34.0890 150.8560 109° East 343 395 8,500  Descending FlightAware
06:00AM -34.0857 150.8657 109° East 331 381 8,800 -420 Climbing Aus ATC (RADAR)
06:01AM -34.0770 150.8830 62° Northeast 340 391 8,400 -1,080 Descending FlightAware
06:01AM -34.0550 150.9320 62° Northeast 326 375 8,100 -480 Descending FlightAware
06:02AM -34.0380 150.9710 62° Northeast 303 349 8,000 -480 Descending FlightAware
06:02AM -34.0180 151.0140 62° Northeast 281 323 7,700  Descending FlightAware
06:02AM -34.0155 151.0203 62° Northeast 284 327 8,000 -420 Climbing Aus ATC (RADAR)
06:02AM -34.0070 151.0340 56° Northeast 278 320 7,600 -1,380 Descending FlightAware
06:02AM -33.9960 151.0440 37° Northeast 282 325 7,500 -1,200 Descending FlightAware
06:03AM -33.9780 151.0500 15° North 275 316 7,100 -1,320 Descending FlightAware
06:03AM -33.9470 151.0410 346° North 271 312 6,600 -1,440 Descending FlightAware
06:04AM -33.9050 151.0220 339° North 277 319 5,700 -1,440 Descending FlightAware
06:04AM -33.8740 151.0090 341° North 275 316 5,200 -1,020 Descending FlightAware
06:05AM -33.8080 151.0010 354° North 246 283 4,400 -780 Descending FlightAware
06:05AM -33.7830 151.0050 North 228 262 4,200 -600 Descending FlightAware
06:06AM -33.7650 151.0090 10° North 230 265 4,000 -840 Descending FlightAware
06:06AM -33.7510 151.0160 23° Northeast 211 243 3,800 -1,020 Descending FlightAware
06:06AM -33.7450 151.0240 48° Northeast 204 235 3,600 -720 Descending FlightAware
06:06AM -33.7400 151.0380 67° East 198 228 3,500 -600 Descending FlightAware
06:07AM -33.7290 151.0760 71° East 183 211 3,100 -480 Descending FlightAware
06:07AM -33.7420 151.0990 124° Southeast 173 199 3,000 -360 Descending FlightAware
06:08AM -33.7570 151.1150 138° Southeast 172 198 2,800 -540 Descending FlightAware
06:08AM -33.7780 151.1320 146° Southeast 173 199 2,500 -480 Descending FlightAware
06:09AM -33.7850 151.1340 167° South 166 191 2,500 -480 Level FlightAware
06:09AM -33.8090 151.1400 168° South 166 191 2,200 -780 Descending FlightAware
06:09AM -33.8280 151.1450 168° South 163 188 1,800 -960 Descending FlightAware
06:10AM -33.8460 151.1500 167° South 150 173 1,400 -900 Descending FlightAware
06:10AM -33.8550 151.1520 170° South 133 153 1,200 -600 Descending FlightAware
06:11AM -33.8943 151.1623 170° South 132 152 700 -720 Descending Aus ATC (RADAR)
06:12AM -33.9090 151.1660 170° South 137 158 200 -1,200 Descending FlightAware
06:12AM -33.9220 151.1700 166° South 141 162 -600 Descending FlightAware
06:12AM -33.9410 151.1740 170° South 55 63  Level FlightAware